createdAt,value
2018-03-27T00:01:18.313Z,83.50
2018-03-27T00:03:45.806Z,83.20
2018-03-27T00:06:13.314Z,83.50
2018-03-27T00:08:40.793Z,83.50
2018-03-27T00:11:09.168Z,84.00
2018-03-27T00:13:37.413Z,84.40
2018-03-27T00:16:04.914Z,84.20
2018-03-27T00:18:33.159Z,84.20
2018-03-27T00:21:00.658Z,84.20
2018-03-27T00:23:28.146Z,84.50
2018-03-27T00:25:55.647Z,84.60
2018-03-27T00:28:37.194Z,85.10
2018-03-27T00:31:16.642Z,84.40
2018-03-27T00:33:55.996Z,84.30
2018-03-27T00:36:35.665Z,84.10
2018-03-27T00:39:15.822Z,83.50
2018-03-27T00:44:38.897Z,83.20
2018-03-27T00:47:07.151Z,83.30
2018-03-27T00:49:34.641Z,83.20
2018-03-27T00:52:02.160Z,83.50
2018-03-27T00:54:29.734Z,84.00
2018-03-27T00:56:58.029Z,83.60
2018-03-27T00:59:26.313Z,83.80
2018-03-27T01:01:54.195Z,83.80
2018-03-27T01:04:21.739Z,83.90
2018-03-27T01:06:49.997Z,84.60
2018-03-27T01:09:18.265Z,84.80
2018-03-27T01:11:45.849Z,84.80
2018-03-27T01:14:13.386Z,84.50
2018-03-27T01:16:41.675Z,86.00
2018-03-27T01:19:09.953Z,85.90
2018-03-27T01:21:38.323Z,86.00
2018-03-27T01:24:06.602Z,86.10
2018-03-27T01:26:34.870Z,86.80
2018-03-27T01:29:03.142Z,88.20
2018-03-27T01:31:30.643Z,87.50
2018-03-27T01:33:58.144Z,87.60
2018-03-27T01:36:25.679Z,87.50
2018-03-27T01:38:53.218Z,87.10
2018-03-27T01:41:20.694Z,86.20
2018-03-27T01:43:48.177Z,85.70
2018-03-27T01:46:15.691Z,85.40
2018-03-27T01:48:43.170Z,85.30
2018-03-27T01:51:10.672Z,85.50
2018-03-27T01:53:38.938Z,85.80
2018-03-27T01:56:06.577Z,85.70
2018-03-27T01:58:34.065Z,85.70
2018-03-27T02:01:01.728Z,85.60
2018-03-27T02:03:30.025Z,86.00
2018-03-27T02:05:57.678Z,85.80
2018-03-27T02:08:25.932Z,86.40
2018-03-27T02:10:53.733Z,86.60
2018-03-27T02:13:26.965Z,87.40
2018-03-27T02:16:00.204Z,86.80
2018-03-27T02:18:34.301Z,88.00
2018-03-27T02:21:08.161Z,88.50
2018-03-27T02:23:35.638Z,88.50
2018-03-27T02:26:03.142Z,88.40
2018-03-27T02:28:31.397Z,88.70
2018-03-27T02:31:00.055Z,88.70
2018-03-27T02:33:27.662Z,89.40
2018-03-27T02:35:55.918Z,90.10
2018-03-27T02:38:23.418Z,90.00
2018-03-27T02:40:50.943Z,90.10
2018-03-27T02:43:19.215Z,90.50
2018-03-27T02:45:47.475Z,90.70
2018-03-27T02:48:14.974Z,90.70
2018-03-27T02:50:42.468Z,90.80
2018-03-27T02:53:09.969Z,91.00
2018-03-27T02:55:38.219Z,91.50
2018-03-27T02:58:05.719Z,91.20
2018-03-27T03:00:33.264Z,91.50
2018-03-27T03:03:01.550Z,91.70
2018-03-27T03:05:29.790Z,91.50
2018-03-27T03:07:57.289Z,91.50
2018-03-27T03:10:24.768Z,91.60
2018-03-27T03:12:52.258Z,92.30
2018-03-27T03:15:19.758Z,92.40
2018-03-27T03:17:48.033Z,92.40
2018-03-27T03:20:16.297Z,92.50
2018-03-27T03:22:43.863Z,92.40
2018-03-27T03:25:12.148Z,92.30
2018-03-27T03:27:39.703Z,92.30
2018-03-27T03:30:07.970Z,93.00
2018-03-27T03:32:36.263Z,92.70
2018-03-27T03:35:04.529Z,93.10
2018-03-27T03:37:32.803Z,92.60
2018-03-27T03:40:01.067Z,92.20
2018-03-27T03:42:28.558Z,92.20
2018-03-27T03:44:56.070Z,92.20
2018-03-27T03:47:23.576Z,92.00
2018-03-27T03:49:51.082Z,92.50
2018-03-27T03:52:18.570Z,93.10
2018-03-27T03:54:46.834Z,93.10
2018-03-27T03:57:15.114Z,93.40
2018-03-27T03:59:43.405Z,93.10
2018-03-27T04:02:11.666Z,93.50
2018-03-27T04:04:39.937Z,94.30
2018-03-27T04:07:07.516Z,94.30
2018-03-27T04:09:35.871Z,93.80
2018-03-27T04:12:03.404Z,93.80
2018-03-27T04:14:30.864Z,93.50
2018-03-27T04:16:58.397Z,93.40
2018-03-27T04:19:25.863Z,93.10
2018-03-27T04:21:53.350Z,92.90
2018-03-27T04:24:20.842Z,92.90
2018-03-27T04:26:49.110Z,93.60
2018-03-27T04:29:17.391Z,93.60
2018-03-27T04:31:45.661Z,93.80
2018-03-27T04:34:13.911Z,94.00
2018-03-27T04:36:41.494Z,94.00
2018-03-27T04:39:09.786Z,94.60
2018-03-27T04:41:38.054Z,94.80
2018-03-27T04:44:06.299Z,94.80
2018-03-27T04:46:33.807Z,94.80
2018-03-27T04:49:01.295Z,94.80
2018-03-27T04:51:28.804Z,94.90
2018-03-27T04:53:57.092Z,94.90
2018-03-27T04:56:24.633Z,94.80
2018-03-27T04:58:52.897Z,95.70
2018-03-27T05:01:20.381Z,95.70
2018-03-27T05:03:48.895Z,95.90
2018-03-27T05:06:16.394Z,96.00
2018-03-27T05:08:43.966Z,96.10
2018-03-27T05:11:12.250Z,96.20
2018-03-27T05:13:40.518Z,96.40
2018-03-27T05:16:08.801Z,96.00
2018-03-27T05:18:37.064Z,95.80
2018-03-27T05:21:05.346Z,95.80
2018-03-27T05:23:33.622Z,95.50
2018-03-27T05:26:01.902Z,95.30
2018-03-27T05:28:30.181Z,95.90
2018-03-27T05:30:58.474Z,96.30
2018-03-27T05:33:25.963Z,96.20
2018-03-27T05:35:53.479Z,96.40
2018-03-27T05:38:21.766Z,96.30
2018-03-27T05:40:49.279Z,96.30
2018-03-27T05:43:16.807Z,96.00
2018-03-27T05:45:44.307Z,95.70
2018-03-27T05:48:11.887Z,95.40
2018-03-27T05:50:40.297Z,94.50
2018-03-27T05:53:07.766Z,94.40
2018-03-27T05:55:35.281Z,94.30
2018-03-27T05:58:03.621Z,93.90
2018-03-27T06:00:31.131Z,93.90
2018-03-27T06:02:58.622Z,93.60
2018-03-27T06:05:26.122Z,93.10
2018-03-27T06:07:53.708Z,92.60
2018-03-27T06:10:22.109Z,92.10
2018-03-27T06:12:49.629Z,92.00
2018-03-27T06:15:17.914Z,91.10
2018-03-27T06:17:45.410Z,91.00
2018-03-27T06:20:12.897Z,90.80
2018-03-27T06:22:40.398Z,90.40
2018-03-27T06:25:07.937Z,90.20
2018-03-27T06:27:36.336Z,89.20
2018-03-27T06:30:04.587Z,88.00
2018-03-27T06:32:32.854Z,87.20
2018-03-27T06:35:00.392Z,87.10
2018-03-27T06:37:27.998Z,87.90
2018-03-27T06:39:56.272Z,86.60
2018-03-27T06:42:24.580Z,85.60
2018-03-27T06:44:52.098Z,85.60
2018-03-27T06:47:20.366Z,86.10
2018-03-27T06:49:48.631Z,85.00
2018-03-27T06:52:16.218Z,84.90
2018-03-27T06:54:44.471Z,81.80
2018-03-27T06:57:12.067Z,81.80
2018-03-27T06:59:39.540Z,81.90
2018-03-27T07:02:07.026Z,81.90
2018-03-27T07:04:34.522Z,81.30
2018-03-27T07:07:02.830Z,80.60
2018-03-27T07:09:31.108Z,79.20
2018-03-27T07:11:58.622Z,79.20
2018-03-27T07:14:26.943Z,76.00
2018-03-27T07:16:55.180Z,76.70
2018-03-27T07:19:22.783Z,76.50
2018-03-27T07:21:51.038Z,76.20
2018-03-27T07:24:19.289Z,75.60
2018-03-27T07:26:46.783Z,75.60
2018-03-27T07:29:14.275Z,75.40
2018-03-27T07:31:41.776Z,72.30
2018-03-27T07:34:10.065Z,70.70
2018-03-27T07:36:37.571Z,70.70
2018-03-27T07:39:05.841Z,73.30
2018-03-27T07:41:33.354Z,74.70
2018-03-27T07:44:00.855Z,76.90
2018-03-27T07:46:28.357Z,75.00
2018-03-27T07:48:56.637Z,74.10
2018-03-27T07:51:24.904Z,74.20
2018-03-27T07:53:53.191Z,76.20
2018-03-27T07:56:21.455Z,77.70
2018-03-27T07:58:49.743Z,78.20
2018-03-27T08:01:18.034Z,80.10
2018-03-27T08:03:45.546Z,80.00
2018-03-27T08:06:13.854Z,80.10
2018-03-27T08:08:42.526Z,80.70
2018-03-27T08:11:11.069Z,79.30
2018-03-27T08:13:39.075Z,79.20
2018-03-27T08:16:07.455Z,78.90
2018-03-27T08:18:35.862Z,78.40
2018-03-27T08:21:03.369Z,78.20
2018-03-27T08:23:30.861Z,79.30
2018-03-27T08:25:59.246Z,80.80
2018-03-27T08:28:27.492Z,82.50
2018-03-27T08:30:54.987Z,82.50
2018-03-27T08:33:22.530Z,83.30
2018-03-27T08:35:50.794Z,84.30
2018-03-27T08:38:21.659Z,84.30
2018-03-27T08:40:49.902Z,84.70
2018-03-27T08:43:17.480Z,84.70
2018-03-27T08:45:45.731Z,84.10
2018-03-27T08:48:14.730Z,83.30
2018-03-27T08:50:42.236Z,83.30
2018-03-27T08:53:09.740Z,82.50
2018-03-27T08:55:37.178Z,82.80
2018-03-27T08:58:04.773Z,83.10
2018-03-27T09:00:33.043Z,81.70
2018-03-27T09:03:00.531Z,81.60
2018-03-27T09:05:28.067Z,80.40
2018-03-27T09:07:56.350Z,80.60
2018-03-27T09:10:24.627Z,80.00
2018-03-27T09:12:52.871Z,80.10
2018-03-27T09:15:20.409Z,79.40
2018-03-27T09:17:47.911Z,77.40
2018-03-27T09:20:16.322Z,77.40
2018-03-27T09:22:43.820Z,77.30
2018-03-27T09:25:11.321Z,76.30
2018-03-27T09:27:38.867Z,75.40
2018-03-27T09:30:07.150Z,71.60
2018-03-27T09:32:35.449Z,71.60
2018-03-27T09:35:02.980Z,71.70
2018-03-27T09:37:31.238Z,70.20
2018-03-27T09:39:58.733Z,70.10
2018-03-27T09:42:26.247Z,69.30
2018-03-27T09:44:53.755Z,68.50
2018-03-27T09:47:21.236Z,67.10
2018-03-27T09:49:48.857Z,67.20
2018-03-27T09:52:17.122Z,67.00
2018-03-27T09:54:45.407Z,64.30
2018-03-27T09:57:14.553Z,64.80
2018-03-27T09:59:42.052Z,64.60
2018-03-27T10:02:09.627Z,66.70
2018-03-27T10:04:37.132Z,66.30
2018-03-27T10:07:04.651Z,62.10
2018-03-27T10:09:32.202Z,58.50
2018-03-27T10:12:00.501Z,55.80
2018-03-27T10:14:27.987Z,55.80
2018-03-27T10:16:55.590Z,56.50
2018-03-27T10:19:23.855Z,56.10
2018-03-27T10:21:52.242Z,55.50
2018-03-27T10:24:20.528Z,56.30
2018-03-27T10:26:48.791Z,56.80
2018-03-27T10:29:17.094Z,56.70
2018-03-27T10:31:44.626Z,56.70
2018-03-27T10:34:12.923Z,58.30
2018-03-27T10:36:40.414Z,58.20
2018-03-27T10:39:08.536Z,59.50
2018-03-27T10:41:36.938Z,60.90
2018-03-27T10:44:04.479Z,60.80
2018-03-27T10:46:32.854Z,62.20
2018-03-27T10:49:01.132Z,61.50
2018-03-27T10:51:29.410Z,58.20
2018-03-27T10:53:57.682Z,59.40
2018-03-27T10:56:25.934Z,57.20
2018-03-27T10:58:53.455Z,57.20
2018-03-27T11:01:20.967Z,56.90
2018-03-27T11:03:49.382Z,56.90
2018-03-27T11:06:16.856Z,56.90
2018-03-27T11:08:44.465Z,56.60
2018-03-27T11:11:16.238Z,55.70
2018-03-27T11:13:44.489Z,56.30
2018-03-27T11:16:12.270Z,56.30
2018-03-27T11:18:40.543Z,56.00
2018-03-27T11:21:08.859Z,56.00
2018-03-27T11:23:36.366Z,56.00
2018-03-27T11:26:03.937Z,56.40
2018-03-27T11:28:32.215Z,55.10
2018-03-27T11:31:00.497Z,55.70
2018-03-27T11:33:28.763Z,56.20
2018-03-27T11:35:57.042Z,56.70
2018-03-27T11:38:25.305Z,57.40
2018-03-27T11:40:52.834Z,57.30
2018-03-27T11:43:21.157Z,57.90
2018-03-27T11:45:49.431Z,58.30
2018-03-27T11:48:16.919Z,58.30
2018-03-27T11:50:44.433Z,57.60
2018-03-27T11:53:12.027Z,57.40
2018-03-27T11:55:39.576Z,57.80
2018-03-27T11:58:08.090Z,57.30
2018-03-27T12:00:35.599Z,56.70
2018-03-27T12:03:03.166Z,56.70
2018-03-27T12:05:31.458Z,55.80
2018-03-27T12:07:59.000Z,55.70
2018-03-27T12:10:27.270Z,55.80
2018-03-27T12:12:54.787Z,55.70
2018-03-27T12:15:22.295Z,55.90
2018-03-27T12:17:50.575Z,56.70
2018-03-27T12:20:18.867Z,57.10
2018-03-27T12:22:46.366Z,57.10
2018-03-27T12:25:13.869Z,57.90
2018-03-27T12:27:42.349Z,59.20
2018-03-27T12:30:10.819Z,58.90
2018-03-27T12:32:39.098Z,58.90
2018-03-27T12:35:07.386Z,59.70
2018-03-27T12:37:35.670Z,60.50
2018-03-27T12:40:03.180Z,60.50
2018-03-27T12:42:30.695Z,60.80
2018-03-27T12:44:58.187Z,61.70
2018-03-27T12:47:25.690Z,61.30
2018-03-27T12:49:54.070Z,61.80
2018-03-27T12:52:22.358Z,62.20
2018-03-27T12:54:49.896Z,62.20
2018-03-27T12:57:17.487Z,62.60
2018-03-27T12:59:45.755Z,63.00
2018-03-27T13:02:13.306Z,63.70
2018-03-27T13:04:41.564Z,64.20
2018-03-27T13:07:09.069Z,64.20
2018-03-27T13:09:36.587Z,63.70
2018-03-27T13:12:04.907Z,64.70
2018-03-27T13:14:32.460Z,64.60
2018-03-27T13:16:59.914Z,65.00
2018-03-27T13:19:27.417Z,65.70
2018-03-27T13:21:54.937Z,64.60
2018-03-27T13:24:22.575Z,64.70
2018-03-27T13:26:50.084Z,65.30
2018-03-27T13:29:17.566Z,65.50
2018-03-27T13:31:45.173Z,66.90
2018-03-27T13:34:12.704Z,71.10
2018-03-27T13:36:40.989Z,72.40
2018-03-27T13:39:08.486Z,72.40
2018-03-27T13:41:36.031Z,72.90
2018-03-27T13:44:06.825Z,74.00
2018-03-27T13:46:35.102Z,74.10
2018-03-27T13:49:03.393Z,74.40
2018-03-27T13:51:30.978Z,74.30
2018-03-27T13:53:58.519Z,74.90
2018-03-27T13:56:26.016Z,74.30
2018-03-27T13:58:53.540Z,74.80
2018-03-27T14:01:21.021Z,74.70
2018-03-27T14:03:48.529Z,74.60
2018-03-27T14:06:17.116Z,74.10
2018-03-27T14:08:45.383Z,75.10
2018-03-27T14:11:13.668Z,75.20
2018-03-27T14:13:42.254Z,75.70
2018-03-27T14:16:10.531Z,76.60
2018-03-27T14:18:39.217Z,76.90
2018-03-27T14:21:07.590Z,77.60
2018-03-27T14:23:36.321Z,78.20
2018-03-27T14:26:04.655Z,78.50
2018-03-27T14:28:32.923Z,80.20
2018-03-27T14:31:01.302Z,81.10
2018-03-27T14:33:29.624Z,83.60
2018-03-27T14:35:57.091Z,82.80
2018-03-27T14:38:24.691Z,84.70
2018-03-27T14:40:52.230Z,82.50
2018-03-27T14:43:19.832Z,82.10
2018-03-27T14:45:48.114Z,81.00
2018-03-27T14:48:15.610Z,81.00
2018-03-27T14:50:43.835Z,81.90
2018-03-27T14:53:12.101Z,83.10
2018-03-27T14:55:40.370Z,84.70
2018-03-27T14:58:07.914Z,84.10
2018-03-27T15:00:35.450Z,85.00
2018-03-27T15:03:02.922Z,85.70
2018-03-27T15:05:30.453Z,86.50
2018-03-27T15:07:57.970Z,86.20
2018-03-27T15:10:26.215Z,87.70
2018-03-27T15:12:53.806Z,87.00
2018-03-27T15:15:21.378Z,87.10
2018-03-27T15:17:49.698Z,88.80
2018-03-27T15:20:17.296Z,88.80
2018-03-27T15:22:44.778Z,90.00
2018-03-27T15:25:13.042Z,90.50
2018-03-27T15:27:41.418Z,91.00
2018-03-27T15:30:09.735Z,91.50
2018-03-27T15:32:37.254Z,91.40
2018-03-27T15:35:05.542Z,92.30
2018-03-27T15:37:33.802Z,92.40
2018-03-27T15:40:01.303Z,92.30
2018-03-27T15:42:28.870Z,92.50
2018-03-27T15:44:56.485Z,92.80
2018-03-27T15:47:24.764Z,93.20
2018-03-27T15:49:53.145Z,93.00
2018-03-27T15:52:21.435Z,93.60
2018-03-27T15:54:49.690Z,94.00
2018-03-27T15:57:17.986Z,94.40
2018-03-27T15:59:45.478Z,94.30
2018-03-27T16:02:12.981Z,94.30
2018-03-27T16:04:41.272Z,95.30
2018-03-27T16:07:09.647Z,95.30
2018-03-27T16:09:37.189Z,95.30
2018-03-27T16:12:04.823Z,95.30
2018-03-27T16:14:32.411Z,94.80
2018-03-27T16:17:00.070Z,93.20
2018-03-27T16:19:27.648Z,93.40
2018-03-27T16:21:55.921Z,92.90
2018-03-27T16:24:23.482Z,92.90
2018-03-27T16:26:51.762Z,92.30
2018-03-27T16:29:20.066Z,92.50
2018-03-27T16:31:47.744Z,92.50
2018-03-27T16:34:15.395Z,93.20
2018-03-27T16:36:42.827Z,93.00
2018-03-27T16:39:10.383Z,93.40
2018-03-27T16:41:37.934Z,93.70
2018-03-27T16:44:06.192Z,93.30
2018-03-27T16:46:33.696Z,93.30
2018-03-27T16:49:01.537Z,93.10
2018-03-27T16:51:29.784Z,94.50
2018-03-27T16:53:57.280Z,94.50
2018-03-27T16:56:24.758Z,94.80
2018-03-27T16:58:52.253Z,95.00
2018-03-27T17:01:19.750Z,95.30
2018-03-27T17:03:47.367Z,95.00
2018-03-27T17:06:15.549Z,95.40
2018-03-27T17:08:43.122Z,95.70
2018-03-27T17:11:11.502Z,95.90
2018-03-27T17:13:39.071Z,95.90
2018-03-27T17:16:07.505Z,96.40
2018-03-27T17:18:34.962Z,96.40
2018-03-27T17:21:02.558Z,96.90
2018-03-27T17:23:30.846Z,97.50
2018-03-27T17:25:59.115Z,97.70
2018-03-27T17:28:27.407Z,98.20
2018-03-27T17:30:55.054Z,98.20
2018-03-27T17:33:23.311Z,98.70
2018-03-27T17:35:50.794Z,98.70
2018-03-27T17:38:18.446Z,98.80
2018-03-27T17:40:46.720Z,99.20
2018-03-27T17:43:15.001Z,99.40
2018-03-27T17:45:43.275Z,99.40
2018-03-27T17:48:11.589Z,99.50
2018-03-27T17:50:40.050Z,99.50
2018-03-27T17:53:08.308Z,99.70
2018-03-27T17:55:36.587Z,99.90
2018-03-27T17:58:04.956Z,99.80
2018-03-27T18:00:33.248Z,99.90
2018-03-27T18:03:02.228Z,99.90
2018-03-27T18:05:30.511Z,99.90
2018-03-27T18:07:59.094Z,99.90
2018-03-27T18:10:27.500Z,99.90
2018-03-27T18:12:55.022Z,99.90
2018-03-27T18:15:23.602Z,99.90
2018-03-27T18:17:51.891Z,99.90
2018-03-27T18:20:20.147Z,99.90
2018-03-27T18:22:47.681Z,99.90
2018-03-27T18:25:15.171Z,99.90
2018-03-27T18:27:42.777Z,99.90
2018-03-27T18:30:10.314Z,99.90
2018-03-27T18:32:39.494Z,99.90
2018-03-27T18:35:07.743Z,99.90
2018-03-27T18:37:36.153Z,99.90
2018-03-27T18:40:04.515Z,99.90
2018-03-27T18:42:32.088Z,99.90
2018-03-27T18:45:01.601Z,99.90
2018-03-27T18:47:29.290Z,99.90
2018-03-27T18:49:57.277Z,99.90
2018-03-27T18:52:25.010Z,99.90
2018-03-27T18:54:54.457Z,99.90
2018-03-27T18:57:22.889Z,99.90
2018-03-27T18:59:50.667Z,99.90
2018-03-27T19:02:18.178Z,99.90
2018-03-27T19:04:46.474Z,99.90
2018-03-27T19:07:14.735Z,99.90
2018-03-27T19:09:43.131Z,99.90
2018-03-27T19:12:11.398Z,99.90
2018-03-27T19:14:39.689Z,99.90
2018-03-27T19:17:08.060Z,99.90
2018-03-27T19:19:36.346Z,99.90
2018-03-27T19:22:03.846Z,99.90
2018-03-27T19:24:31.375Z,99.90
2018-03-27T19:26:58.999Z,99.90
2018-03-27T19:29:27.302Z,99.90
2018-03-27T19:31:54.804Z,99.90
2018-03-27T19:34:22.364Z,99.90
2018-03-27T19:36:49.905Z,99.90
2018-03-27T19:39:17.424Z,99.90
2018-03-27T19:41:45.689Z,99.90
2018-03-27T19:44:14.066Z,99.90
2018-03-27T19:46:42.396Z,99.90
2018-03-27T19:49:10.006Z,99.90
2018-03-27T19:51:38.268Z,99.90
2018-03-27T19:54:05.842Z,99.90
2018-03-27T19:56:34.265Z,99.90
2018-03-27T19:59:01.851Z,99.90
2018-03-27T20:01:29.334Z,99.90
2018-03-27T20:03:57.742Z,99.90
2018-03-27T20:06:25.245Z,99.90
2018-03-27T20:08:52.739Z,99.90
2018-03-27T20:11:20.330Z,99.90
2018-03-27T20:13:47.970Z,99.90
2018-03-27T20:16:15.449Z,99.90
2018-03-27T20:18:42.973Z,99.90
2018-03-27T20:21:11.221Z,99.90
2018-03-27T20:23:38.715Z,99.90
2018-03-27T20:26:07.311Z,99.90
2018-03-27T20:28:34.843Z,99.90
2018-03-27T20:31:03.149Z,99.90
2018-03-27T20:33:31.089Z,99.90
2018-03-27T20:35:59.403Z,99.90
2018-03-27T20:38:27.026Z,99.90
2018-03-27T20:40:55.317Z,99.90
2018-03-27T20:43:23.986Z,99.90
2018-03-27T20:45:52.256Z,99.90
2018-03-27T20:48:19.785Z,99.90
2018-03-27T20:50:47.270Z,99.90
2018-03-27T20:53:14.750Z,99.90
2018-03-27T20:55:43.034Z,99.90
2018-03-27T20:58:10.535Z,99.90
2018-03-27T21:00:38.383Z,99.90
2018-03-27T21:03:05.902Z,99.90
2018-03-27T21:05:34.163Z,99.90
2018-03-27T21:08:01.735Z,99.90
2018-03-27T21:10:30.063Z,99.90
2018-03-27T21:12:57.582Z,99.90
2018-03-27T21:15:25.143Z,99.90
2018-03-27T21:17:53.827Z,99.90
2018-03-27T21:20:22.087Z,99.90
2018-03-27T21:22:52.566Z,99.90
2018-03-27T21:25:20.912Z,99.90
2018-03-27T21:27:48.474Z,99.90
2018-03-27T21:30:15.966Z,99.90
2018-03-27T21:32:43.582Z,99.90
2018-03-27T21:35:12.611Z,99.90
2018-03-27T21:37:40.649Z,99.90
2018-03-27T21:40:08.221Z,99.90
2018-03-27T21:42:35.709Z,99.90
2018-03-27T21:45:04.005Z,99.90
2018-03-27T21:47:31.694Z,99.90
2018-03-27T21:49:59.981Z,99.90
2018-03-27T21:52:28.234Z,99.90
2018-03-27T21:54:55.745Z,99.90
2018-03-27T21:57:23.217Z,99.90
2018-03-27T21:59:50.784Z,99.90
2018-03-27T22:02:18.376Z,99.90
2018-03-27T22:04:45.863Z,99.90
2018-03-27T22:07:13.396Z,99.90
2018-03-27T22:09:41.842Z,99.90
2018-03-27T22:12:09.438Z,99.90
2018-03-27T22:14:37.708Z,99.90
2018-03-27T22:17:05.993Z,99.90
2018-03-27T22:19:34.251Z,99.90
2018-03-27T22:22:01.856Z,99.90
2018-03-27T22:24:31.083Z,99.90
2018-03-27T22:26:58.594Z,99.90
2018-03-27T22:29:26.958Z,99.90
2018-03-27T22:31:55.342Z,99.90
2018-03-27T22:34:23.621Z,99.90
2018-03-27T22:36:51.900Z,99.90
2018-03-27T22:39:20.185Z,99.90
2018-03-27T22:41:48.516Z,99.90
2018-03-27T22:44:16.026Z,99.90
2018-03-27T22:46:43.524Z,99.90
2018-03-27T22:49:11.954Z,99.90
2018-03-27T22:51:40.216Z,99.90
2018-03-27T22:54:08.485Z,99.90
2018-03-27T22:56:35.987Z,99.90
2018-03-27T22:59:03.515Z,99.90
2018-03-27T23:01:31.858Z,99.90
2018-03-27T23:03:59.350Z,99.90
2018-03-27T23:06:27.740Z,99.90
2018-03-27T23:08:56.111Z,99.90
2018-03-27T23:11:24.425Z,99.90
2018-03-27T23:13:51.890Z,99.90
2018-03-27T23:16:19.432Z,99.90
2018-03-27T23:18:46.925Z,99.90
2018-03-27T23:21:14.424Z,99.90
2018-03-27T23:23:42.725Z,99.90
2018-03-27T23:26:10.272Z,99.90
2018-03-27T23:28:38.676Z,99.90
2018-03-27T23:31:06.290Z,99.90
2018-03-27T23:33:34.580Z,99.90
2018-03-27T23:36:02.841Z,99.90
2018-03-27T23:38:31.156Z,99.90
2018-03-27T23:40:58.710Z,99.90
2018-03-27T23:43:26.274Z,99.90
2018-03-27T23:45:53.778Z,99.90
2018-03-27T23:48:22.272Z,99.90
2018-03-27T23:50:49.815Z,99.90
2018-03-27T23:53:17.322Z,99.90
2018-03-27T23:55:44.867Z,99.90
2018-03-27T23:58:12.362Z,99.90
